createdAt,value
2022-09-11T00:01:28.513Z,8.90
2022-09-11T00:04:20.579Z,9.40
2022-09-11T00:07:12.827Z,8.90
2022-09-11T00:10:05.204Z,9.10
2022-09-11T00:12:57.324Z,8.20
2022-09-11T00:15:41.034Z,8.60
2022-09-11T00:18:36.335Z,7.60
2022-09-11T00:21:22.898Z,8.80
2022-09-11T00:23:54.768Z,8.90
2022-09-11T00:26:35.761Z,8.40
2022-09-11T00:29:08.135Z,7.70
2022-09-11T00:31:40.062Z,8.30
2022-09-11T00:34:14.002Z,11.60
2022-09-11T00:36:45.680Z,7.20
2022-09-11T00:39:18.141Z,8.80
2022-09-11T00:41:51.725Z,7.90
2022-09-11T00:45:00.896Z,7.40
2022-09-11T00:47:33.590Z,6.00
2022-09-11T00:50:13.668Z,8.70
2022-09-11T00:52:55.558Z,7.90
2022-09-11T00:55:33.156Z,7.20
2022-09-11T00:58:08.541Z,8.80
2022-09-11T01:00:46.077Z,7.60
2022-09-11T01:03:19.549Z,7.80
2022-09-11T01:05:55.269Z,8.20
2022-09-11T01:08:36.509Z,6.70
2022-09-11T01:11:30.713Z,8.20
2022-09-11T01:14:14.464Z,7.70
2022-09-11T01:17:19.513Z,8.00
2022-09-11T01:20:28.464Z,9.30
2022-09-11T01:23:49.339Z,8.80
2022-09-11T01:26:48.832Z,9.00
2022-09-11T01:29:46.041Z,8.80
2022-09-11T01:32:46.293Z,10.80
2022-09-11T01:35:51.129Z,10.80
2022-09-11T01:38:49.291Z,11.90
2022-09-11T01:41:48.711Z,11.10
2022-09-11T01:44:27.395Z,11.80
2022-09-11T01:47:13.207Z,14.40
2022-09-11T01:49:49.172Z,13.90
2022-09-11T01:52:46.236Z,12.30
2022-09-11T01:55:45.449Z,15.00
2022-09-11T01:58:39.001Z,12.00
2022-09-11T02:01:34.983Z,12.40
2022-09-11T02:04:31.246Z,12.30
2022-09-11T02:07:26.535Z,14.80
2022-09-11T02:10:23.166Z,13.90
2022-09-11T02:13:27.566Z,13.80
2022-09-11T02:16:24.039Z,15.20
2022-09-11T02:19:18.453Z,14.80
2022-09-11T02:22:03.102Z,14.40
2022-09-11T02:24:56.318Z,12.30
2022-09-11T02:27:40.778Z,14.60
2022-09-11T02:30:32.987Z,12.60
2022-09-11T02:33:33.352Z,13.70
2022-09-11T02:36:42.427Z,13.30
2022-09-11T02:40:00.465Z,13.70
2022-09-11T02:43:09.859Z,13.20
2022-09-11T02:46:18.051Z,13.60
2022-09-11T02:49:16.593Z,11.60
2022-09-11T02:52:21.511Z,14.30
2022-09-11T02:55:20.080Z,12.70
2022-09-11T02:58:18.014Z,13.90
2022-09-11T03:01:10.962Z,11.70
2022-09-11T03:04:03.038Z,11.70
2022-09-11T03:06:55.284Z,11.00
2022-09-11T03:09:47.335Z,12.10
2022-09-11T03:12:39.899Z,11.00
2022-09-11T03:15:31.949Z,12.10
2022-09-11T03:18:23.261Z,11.70
2022-09-11T03:21:16.851Z,11.90
2022-09-11T03:24:10.233Z,12.00
2022-09-11T03:27:02.674Z,10.70
2022-09-11T03:29:56.308Z,10.90
2022-09-11T03:32:49.243Z,11.70
2022-09-11T03:35:41.464Z,11.50
2022-09-11T03:38:34.057Z,11.60
2022-09-11T03:41:26.682Z,11.00
2022-09-11T03:44:19.419Z,11.10
2022-09-11T03:47:12.219Z,10.40
2022-09-11T03:50:04.610Z,12.70
2022-09-11T03:52:56.969Z,13.10
2022-09-11T03:55:50.296Z,10.50
2022-09-11T03:58:43.316Z,11.80
2022-09-11T04:01:35.708Z,11.70
2022-09-11T04:04:28.069Z,11.50
2022-09-11T04:07:03.110Z,11.60
2022-09-11T04:09:55.366Z,12.70
2022-09-11T04:12:47.965Z,11.30
2022-09-11T04:15:40.114Z,11.90
2022-09-11T04:18:32.924Z,11.40
2022-09-11T04:21:18.430Z,10.80
2022-09-11T04:24:12.951Z,11.10
2022-09-11T04:27:05.737Z,10.40
2022-09-11T04:29:58.058Z,10.80
2022-09-11T04:32:44.349Z,10.70
2022-09-11T04:35:40.610Z,11.80
2022-09-11T04:38:33.982Z,13.60
2022-09-11T04:41:27.834Z,11.40
2022-09-11T04:44:20.847Z,9.70
2022-09-11T04:47:13.239Z,12.00
2022-09-11T04:50:05.998Z,11.50
2022-09-11T04:52:58.322Z,11.40
2022-09-11T04:55:51.159Z,12.00
2022-09-11T04:58:43.816Z,11.90
2022-09-11T05:01:36.432Z,12.90
2022-09-11T05:04:28.782Z,12.40
2022-09-11T05:07:21.104Z,11.20
2022-09-11T05:10:13.434Z,12.30
2022-09-11T05:12:59.066Z,15.10
2022-09-11T05:15:51.374Z,12.80
2022-09-11T05:18:50.446Z,17.30
2022-09-11T05:21:42.873Z,15.10
2022-09-11T05:24:35.337Z,13.80
2022-09-11T05:27:27.119Z,14.40
2022-09-11T05:30:19.498Z,14.90
2022-09-11T05:33:14.406Z,14.20
2022-09-11T05:36:08.439Z,13.90
2022-09-11T05:39:01.505Z,12.80
2022-09-11T05:41:55.397Z,13.20
2022-09-11T05:44:48.373Z,13.00
2022-09-11T05:47:40.590Z,14.40
2022-09-11T05:50:33.279Z,13.60
2022-09-11T05:53:10.229Z,15.20
2022-09-11T05:56:09.331Z,14.70
2022-09-11T05:59:02.550Z,14.00
2022-09-11T06:01:54.946Z,14.00
2022-09-11T06:04:47.219Z,13.70
2022-09-11T06:07:39.311Z,14.00
2022-09-11T06:10:31.690Z,14.20
2022-09-11T06:13:24.054Z,11.30
2022-09-11T06:16:19.058Z,12.50
2022-09-11T06:19:11.541Z,11.60
2022-09-11T06:22:03.645Z,11.00
2022-09-11T06:24:55.887Z,11.00
2022-09-11T06:27:47.010Z,12.50
2022-09-11T06:30:29.383Z,11.70
2022-09-11T06:33:21.709Z,12.00
2022-09-11T06:36:09.560Z,13.00
2022-09-11T06:39:02.393Z,12.50
2022-09-11T06:41:55.018Z,12.30
2022-09-11T06:44:47.622Z,12.20
2022-09-11T06:47:42.522Z,12.80
2022-09-11T06:50:40.986Z,13.80
2022-09-11T06:53:33.381Z,14.40
2022-09-11T06:56:13.649Z,14.60
2022-09-11T06:59:05.945Z,12.50
2022-09-11T07:01:51.927Z,16.30
2022-09-11T07:04:44.353Z,11.40
2022-09-11T07:07:36.611Z,11.60
2022-09-11T07:10:29.448Z,13.60
2022-09-11T07:13:24.406Z,14.40
2022-09-11T07:16:12.230Z,12.60
2022-09-11T07:19:05.087Z,13.60
2022-09-11T07:21:49.610Z,12.20
2022-09-11T07:24:42.056Z,13.70
2022-09-11T07:27:34.488Z,11.30
2022-09-11T07:30:27.243Z,10.40
2022-09-11T07:33:19.699Z,11.10
2022-09-11T07:36:12.627Z,10.90
2022-09-11T07:39:05.191Z,12.00
2022-09-11T07:41:57.804Z,12.60
2022-09-11T07:44:50.786Z,10.30
2022-09-11T07:47:43.351Z,13.40
2022-09-11T07:50:25.681Z,10.90
2022-09-11T07:53:18.384Z,12.90
2022-09-11T07:56:13.081Z,13.20
2022-09-11T07:58:56.912Z,13.80
2022-09-11T08:01:50.245Z,12.50
2022-09-11T08:04:42.418Z,12.80
2022-09-11T08:07:35.474Z,13.90
2022-09-11T08:10:28.252Z,15.80
2022-09-11T08:13:20.789Z,13.70
2022-09-11T08:16:13.070Z,14.50
2022-09-11T08:19:08.092Z,14.50
2022-09-11T08:22:00.383Z,14.20
2022-09-11T08:24:52.592Z,13.40
2022-09-11T08:27:44.926Z,12.90
2022-09-11T08:30:38.660Z,12.90
2022-09-11T08:33:20.848Z,14.40
2022-09-11T08:36:15.247Z,12.20
2022-09-11T08:39:09.084Z,13.30
2022-09-11T08:42:08.720Z,14.00
2022-09-11T08:45:02.270Z,13.70
2022-09-11T08:47:54.710Z,13.60
2022-09-11T08:50:47.795Z,14.90
2022-09-11T08:53:40.438Z,13.30
2022-09-11T08:56:36.386Z,13.90
2022-09-11T08:59:39.903Z,12.70
2022-09-11T09:02:51.703Z,14.10
2022-09-11T09:05:41.741Z,12.10
2022-09-11T09:08:44.904Z,11.90
2022-09-11T09:11:37.307Z,12.20
2022-09-11T09:14:43.651Z,12.00
2022-09-11T09:17:42.311Z,12.60
2022-09-11T09:20:37.401Z,13.10
2022-09-11T09:23:33.841Z,12.80
2022-09-11T09:26:20.997Z,10.40
2022-09-11T09:29:22.212Z,11.40
2022-09-11T09:32:21.031Z,12.00
2022-09-11T09:35:20.512Z,10.70
2022-09-11T09:38:18.579Z,10.30
2022-09-11T09:41:18.237Z,9.80
2022-09-11T09:44:05.015Z,8.60
2022-09-11T09:46:57.678Z,9.50
2022-09-11T09:49:51.577Z,11.40
2022-09-11T09:52:36.178Z,10.70
2022-09-11T09:55:28.919Z,11.80
2022-09-11T09:58:27.254Z,9.40
2022-09-11T10:01:44.861Z,10.40
2022-09-11T10:04:30.326Z,9.10
2022-09-11T10:07:24.666Z,9.20
2022-09-11T10:10:26.713Z,10.10
2022-09-11T10:13:25.479Z,9.90
2022-09-11T10:16:25.078Z,9.90
2022-09-11T10:19:39.694Z,9.30
2022-09-11T10:22:32.926Z,9.00
2022-09-11T10:25:26.823Z,9.60
2022-09-11T10:28:24.110Z,9.90
2022-09-11T10:31:18.687Z,9.40
2022-09-11T10:34:03.026Z,10.80
2022-09-11T10:37:00.560Z,11.80
2022-09-11T10:39:54.119Z,9.90
2022-09-11T10:42:41.472Z,9.40
2022-09-11T10:45:25.395Z,9.20
2022-09-11T10:48:24.625Z,8.20
2022-09-11T10:51:11.819Z,9.60
2022-09-11T10:54:26.261Z,9.40
2022-09-11T10:57:24.797Z,10.10
2022-09-11T11:00:20.491Z,9.40
2022-09-11T11:03:17.778Z,9.80
2022-09-11T11:06:25.882Z,9.40
2022-09-11T11:09:31.141Z,8.50
2022-09-11T11:12:34.331Z,9.00
2022-09-11T11:15:49.541Z,8.90
2022-09-11T11:19:04.234Z,8.00
2022-09-11T11:22:08.573Z,9.20
2022-09-11T11:24:56.231Z,10.00
2022-09-11T11:28:06.581Z,9.40
2022-09-11T11:31:11.393Z,9.80
2022-09-11T11:34:21.542Z,9.10
2022-09-11T11:37:17.007Z,7.00
2022-09-11T11:40:17.737Z,6.30
2022-09-11T11:43:13.350Z,8.30
2022-09-11T11:46:15.665Z,6.70
2022-09-11T11:49:12.237Z,6.50
2022-09-11T11:52:14.320Z,7.60
2022-09-11T11:55:16.971Z,7.10
2022-09-11T11:58:20.511Z,6.10
2022-09-11T12:01:18.451Z,11.80
2022-09-11T12:04:21.210Z,5.50
2022-09-11T12:07:22.688Z,5.50
2022-09-11T12:10:28.827Z,6.90
2022-09-11T12:13:21.442Z,4.40
2022-09-11T12:16:21.417Z,4.90
2022-09-11T12:19:20.871Z,5.60
2022-09-11T12:22:33.011Z,5.00
2022-09-11T12:25:53.711Z,5.40
2022-09-11T12:28:45.705Z,4.50
2022-09-11T12:31:48.594Z,4.20
2022-09-11T12:35:02.368Z,4.00
2022-09-11T12:38:02.727Z,4.80
2022-09-11T12:41:00.055Z,4.60
2022-09-11T12:43:53.765Z,4.50
2022-09-11T12:47:13.885Z,4.70
2022-09-11T12:50:06.127Z,5.00
2022-09-11T12:53:02.525Z,3.40
2022-09-11T12:56:00.017Z,3.60
2022-09-11T13:01:49.972Z,3.50
2022-09-11T13:04:33.412Z,4.80
2022-09-11T13:07:41.503Z,4.60
2022-09-11T13:10:37.729Z,6.20
2022-09-11T13:13:44.707Z,4.30
2022-09-11T13:16:37.147Z,5.50
2022-09-11T13:19:37.481Z,4.70
2022-09-11T13:22:31.256Z,3.70
2022-09-11T13:25:26.599Z,4.80
2022-09-11T13:28:25.441Z,4.70
2022-09-11T13:31:21.525Z,4.90
2022-09-11T13:34:20.234Z,4.70
2022-09-11T13:37:13.961Z,3.70
2022-09-11T13:40:09.409Z,4.30
2022-09-11T13:43:02.143Z,3.90
2022-09-11T13:46:11.677Z,4.30
2022-09-11T13:49:27.490Z,4.60
2022-09-11T13:52:23.138Z,4.90
2022-09-11T13:55:20.212Z,5.40
2022-09-11T13:58:25.441Z,5.20
2022-09-11T14:01:17.908Z,6.00
2022-09-11T14:04:27.309Z,5.70
2022-09-11T14:07:22.322Z,4.90
2022-09-11T14:10:24.596Z,5.70
2022-09-11T14:13:15.244Z,5.00
2022-09-11T14:16:09.678Z,5.10
2022-09-11T14:19:08.728Z,5.30
2022-09-11T14:22:03.190Z,4.20
2022-09-11T14:25:03.004Z,4.00
2022-09-11T14:27:48.430Z,5.80
2022-09-11T14:30:37.632Z,6.10
2022-09-11T14:33:29.889Z,4.40
2022-09-11T14:36:22.801Z,4.50
2022-09-11T14:39:19.853Z,5.00
2022-09-11T14:42:16.230Z,5.50
2022-09-11T14:45:22.353Z,5.90
2022-09-11T14:48:14.637Z,6.50
2022-09-11T14:50:57.365Z,4.40
2022-09-11T14:53:49.428Z,5.20
2022-09-11T14:56:41.463Z,4.30
2022-09-11T14:59:33.542Z,5.40
2022-09-11T15:02:27.408Z,5.50
2022-09-11T15:05:23.032Z,4.80
2022-09-11T15:08:05.673Z,4.50
2022-09-11T15:10:57.725Z,5.60
2022-09-11T15:14:11.308Z,4.30
2022-09-11T15:17:03.183Z,8.00
2022-09-11T15:19:38.921Z,7.70
2022-09-11T15:22:31.567Z,6.70
2022-09-11T15:25:23.921Z,5.40
2022-09-11T15:28:16.050Z,5.90
2022-09-11T15:31:11.163Z,5.30
2022-09-11T15:34:07.487Z,4.40
2022-09-11T15:37:00.357Z,5.30
2022-09-11T15:39:53.281Z,5.20
2022-09-11T15:42:45.285Z,5.10
2022-09-11T15:45:44.521Z,4.60
2022-09-11T15:48:19.616Z,4.50
2022-09-11T15:51:03.248Z,4.90
2022-09-11T15:53:37.977Z,5.00
2022-09-11T15:56:26.024Z,5.30
2022-09-11T15:59:17.766Z,5.00
2022-09-11T16:02:04.176Z,4.90
2022-09-11T16:04:56.278Z,5.30
2022-09-11T16:07:49.724Z,6.30
2022-09-11T16:10:43.854Z,5.90
2022-09-11T16:13:29.422Z,5.00
2022-09-11T16:16:21.598Z,7.60
2022-09-11T16:19:07.405Z,10.80
2022-09-11T16:22:02.266Z,7.70
2022-09-11T16:24:38.307Z,8.20
2022-09-11T16:27:24.471Z,7.10
2022-09-11T16:30:41.535Z,8.40
2022-09-11T16:33:29.691Z,9.80
2022-09-11T16:36:22.799Z,8.30
2022-09-11T16:39:07.139Z,9.30
2022-09-11T16:41:59.179Z,7.00
2022-09-11T16:44:51.444Z,10.90
2022-09-11T16:47:35.308Z,10.70
2022-09-11T16:50:27.603Z,10.30
2022-09-11T16:53:19.573Z,10.90
2022-09-11T16:56:01.511Z,8.80
2022-09-11T16:58:54.611Z,8.30
2022-09-11T17:01:41.022Z,9.10
2022-09-11T17:04:33.351Z,9.70
2022-09-11T17:07:05.451Z,9.00
2022-09-11T17:09:57.455Z,9.40
2022-09-11T17:12:50.161Z,8.40
2022-09-11T17:15:25.404Z,8.70
2022-09-11T17:18:17.900Z,8.00
2022-09-11T17:21:07.254Z,10.00
2022-09-11T17:24:00.321Z,9.50
2022-09-11T17:26:42.790Z,7.10
2022-09-11T17:29:27.668Z,10.30
2022-09-11T17:32:29.348Z,9.20
2022-09-11T17:35:21.484Z,10.10
2022-09-11T17:38:13.519Z,10.20
2022-09-11T17:41:06.403Z,11.80
2022-09-11T17:43:51.180Z,11.70
2022-09-11T17:46:36.401Z,8.80
2022-09-11T17:49:15.954Z,8.90
2022-09-11T17:52:08.187Z,9.50
2022-09-11T17:54:46.505Z,10.50
2022-09-11T17:57:26.563Z,10.40
2022-09-11T18:00:19.674Z,9.10
2022-09-11T18:03:00.810Z,9.70
2022-09-11T18:05:41.681Z,10.90
2022-09-11T18:08:34.573Z,8.30
2022-09-11T18:11:19.746Z,10.00
2022-09-11T18:13:51.788Z,10.10
2022-09-11T18:16:46.992Z,9.40
2022-09-11T18:19:28.294Z,9.80
2022-09-11T18:22:09.840Z,9.80
2022-09-11T18:25:02.105Z,10.60
2022-09-11T18:27:52.783Z,13.60
2022-09-11T18:30:46.042Z,12.60
2022-09-11T18:33:38.066Z,13.10
2022-09-11T18:36:23.606Z,10.40
2022-09-11T18:39:05.876Z,10.40
2022-09-11T18:42:00.022Z,10.00
2022-09-11T18:44:34.670Z,11.00
2022-09-11T18:47:27.906Z,10.70
2022-09-11T18:50:20.146Z,10.60
2022-09-11T18:53:13.363Z,10.30
2022-09-11T18:56:07.952Z,11.10
2022-09-11T18:59:01.320Z,10.00
2022-09-11T19:01:33.559Z,11.00
2022-09-11T19:04:26.928Z,11.30
2022-09-11T19:07:18.887Z,9.90
2022-09-11T19:09:54.494Z,11.00
2022-09-11T19:12:39.176Z,9.10
2022-09-11T19:15:31.668Z,10.10
2022-09-11T19:18:23.918Z,8.50
2022-09-11T19:21:18.462Z,9.20
2022-09-11T19:24:10.587Z,10.60
2022-09-11T19:26:55.363Z,8.90
2022-09-11T19:29:50.424Z,8.70
2022-09-11T19:32:42.492Z,9.00
2022-09-11T19:35:27.497Z,8.50
2022-09-11T19:38:21.362Z,7.70
2022-09-11T19:41:15.187Z,8.20
2022-09-11T19:43:50.857Z,7.30
2022-09-11T19:46:43.060Z,9.10
2022-09-11T19:49:18.454Z,8.10
2022-09-11T19:52:11.998Z,8.20
2022-09-11T19:55:03.958Z,8.80
2022-09-11T19:57:44.650Z,8.60
2022-09-11T20:00:39.471Z,7.60
2022-09-11T20:03:11.413Z,6.80
2022-09-11T20:06:03.927Z,6.70
2022-09-11T20:08:50.284Z,8.10
2022-09-11T20:11:42.368Z,8.40
2022-09-11T20:14:34.491Z,8.10
2022-09-11T20:17:27.200Z,8.30
2022-09-11T20:20:19.452Z,8.20
2022-09-11T20:23:01.360Z,8.00
2022-09-11T20:25:46.275Z,8.60
2022-09-11T20:28:28.158Z,8.80
2022-09-11T20:31:22.523Z,8.90
2022-09-11T20:33:55.018Z,8.70
2022-09-11T20:36:47.523Z,7.40
2022-09-11T20:39:27.046Z,8.10
2022-09-11T20:42:01.364Z,8.00
2022-09-11T20:44:37.186Z,7.70
2022-09-11T20:47:19.586Z,8.70
2022-09-11T20:50:13.397Z,8.50
2022-09-11T20:53:05.441Z,7.40
2022-09-11T20:56:03.231Z,6.80
2022-09-11T20:58:48.339Z,8.90
2022-09-11T21:01:22.915Z,9.60
2022-09-11T21:04:14.947Z,8.40
2022-09-11T21:06:51.504Z,7.80
2022-09-11T21:09:34.466Z,7.10
2022-09-11T21:12:27.682Z,7.00
2022-09-11T21:15:19.988Z,7.90
2022-09-11T21:18:12.338Z,9.30
2022-09-11T21:20:56.962Z,7.20
2022-09-11T21:23:32.060Z,8.60
2022-09-11T21:26:26.213Z,8.10
2022-09-11T21:29:18.567Z,9.50
2022-09-11T21:32:10.592Z,9.20
2022-09-11T21:35:02.720Z,7.60
2022-09-11T21:37:54.849Z,8.00
2022-09-11T21:40:46.922Z,8.80
2022-09-11T21:43:41.074Z,9.30
2022-09-11T21:46:33.205Z,7.40
2022-09-11T21:49:15.123Z,6.60
2022-09-11T21:51:49.622Z,7.40
2022-09-11T21:54:32.551Z,7.80
2022-09-11T21:57:08.020Z,7.60
2022-09-11T22:00:00.501Z,7.90
2022-09-11T22:02:52.543Z,9.10
2022-09-11T22:05:46.533Z,7.50
2022-09-11T22:08:41.280Z,8.10
2022-09-11T22:11:33.333Z,11.70
2022-09-11T22:14:07.138Z,8.40
2022-09-11T22:16:59.424Z,7.10
2022-09-11T22:19:52.485Z,7.30
2022-09-11T22:22:44.757Z,7.80
2022-09-11T22:25:37.724Z,7.80
2022-09-11T22:28:30.365Z,7.80
2022-09-11T22:31:24.848Z,7.60
2022-09-11T22:34:16.784Z,7.30
2022-09-11T22:37:08.797Z,7.90
2022-09-11T22:39:51.741Z,7.50
2022-09-11T22:42:44.190Z,8.20
2022-09-11T22:45:36.551Z,8.90
2022-09-11T22:48:28.668Z,6.60
2022-09-11T22:51:20.862Z,8.70
2022-09-11T22:54:15.326Z,7.40
2022-09-11T22:57:07.769Z,8.50
2022-09-11T22:59:49.809Z,7.90
2022-09-11T23:02:42.010Z,10.30
2022-09-11T23:05:52.030Z,8.70
2022-09-11T23:08:45.804Z,9.80
2022-09-11T23:11:38.016Z,7.20
2022-09-11T23:14:30.152Z,6.90
2022-09-11T23:17:22.181Z,6.70
2022-09-11T23:20:14.324Z,6.70
2022-09-11T23:22:56.381Z,6.80
2022-09-11T23:25:48.451Z,7.70
2022-09-11T23:28:41.440Z,6.10
2022-09-11T23:31:25.272Z,7.80
2022-09-11T23:33:59.473Z,7.40
2022-09-11T23:36:51.562Z,7.20
2022-09-11T23:39:45.289Z,6.40
2022-09-11T23:42:37.273Z,6.80
2022-09-11T23:45:29.514Z,7.00
2022-09-11T23:48:21.599Z,6.20
2022-09-11T23:51:13.738Z,6.80
2022-09-11T23:54:06.015Z,6.50
2022-09-11T23:56:58.095Z,6.60
2022-09-11T23:59:50.054Z,7.60
